Time;durP1;ratioP1;P1;durP2;ratioP2;P2;SDS_P1;SDS_P2;PMS_P1;PMS_P2;Temp;Humidity;BMP_temperature;BMP_pressure;BME280_temperature;BME280_humidity;BME280_pressure;Samples;Min_cycle;Max_cycle;Signal;HPM_P1;HPM_P2
2021/08/05 00:00:14;;;;;;;6.60;6.10;;;;;;;19.87;66.14;100388.22;5003468;28;20027;-45
2021/08/05 00:02:39;;;;;;;6.40;5.90;;;;;;;19.87;66.29;100384.66;5002893;28;20080;-45
2021/08/05 00:05:05;;;;;;;6.38;5.88;;;;;;;19.88;66.20;100387.25;5003637;28;20057;-45
2021/08/05 00:07:30;;;;;;;6.35;5.85;;;;;;;19.88;66.25;100384.56;5003428;28;20026;-45
2021/08/05 00:09:55;;;;;;;6.22;5.82;;;;;;;19.86;66.29;100378.47;5003912;28;20030;-45
2021/08/05 00:12:21;;;;;;;5.72;5.35;;;;;;;19.89;66.14;100372.06;5002177;28;20030;-45
2021/08/05 00:14:46;;;;;;;5.97;5.57;;;;;;;19.88;66.24;100379.22;4999845;28;20034;-44
2021/08/05 00:17:12;;;;;;;6.30;5.90;;;;;;;19.86;66.30;100373.09;5006269;28;20034;-45
2021/08/05 00:19:37;;;;;;;6.60;6.10;;;;;;;19.85;66.41;100371.34;5004578;28;20073;-45
2021/08/05 00:22:02;;;;;;;6.70;6.20;;;;;;;19.87;66.28;100363.25;5006318;28;20027;-44
2021/08/05 00:24:28;;;;;;;6.53;6.03;;;;;;;19.86;66.34;100365.06;5002209;28;20013;-44
2021/08/05 00:26:53;;;;;;;6.28;5.88;;;;;;;19.87;66.22;100361.44;5006859;28;20465;-45
2021/08/05 00:29:21;;;;;;;6.35;5.82;;;;;;;19.86;66.26;100362.41;5008065;28;20041;-45
2021/08/05 00:31:46;;;;;;;6.75;6.25;;;;;;;19.85;66.37;100357.13;5009297;28;20030;-44
2021/08/05 00:34:12;;;;;;;5.95;5.53;;;;;;;19.83;66.39;100359.88;5009625;28;20499;-45
2021/08/05 00:36:37;;;;;;;8.07;5.93;;;;;;;19.85;66.31;100355.28;5012935;28;20038;-45
2021/08/05 00:39:03;;;;;;;6.68;6.18;;;;;;;19.84;66.27;100352.72;5012815;28;20025;-45
2021/08/05 00:41:28;;;;;;;5.93;5.53;;;;;;;19.86;66.44;100358.84;5010277;28;20060;-45
2021/08/05 00:43:53;;;;;;;6.15;5.75;;;;;;;19.78;66.51;100348.56;5009520;28;20046;-45
2021/08/05 00:46:19;;;;;;;6.22;5.82;;;;;;;19.83;66.28;100354.53;5004820;28;20025;-45
2021/08/05 00:48:44;;;;;;;5.82;5.43;;;;;;;19.84;66.36;100356.25;5010644;28;20022;-45
2021/08/05 00:51:09;;;;;;;6.97;6.38;;;;;;;19.80;66.24;100349.34;5008092;28;20049;-44
2021/08/05 00:53:35;;;;;;;6.40;5.90;;;;;;;19.85;66.34;100344.59;5002896;28;20113;-45
2021/08/05 00:56:00;;;;;;;6.35;5.80;;;;;;;19.85;66.33;100349.09;5007511;28;20023;-45
2021/08/05 00:58:27;;;;;;;6.47;5.97;;;;;;;19.81;66.55;100350.22;5008528;28;20033;-45
2021/08/05 01:00:57;;;;;;;6.43;5.95;;;;;;;19.84;66.29;100350.91;5005602;28;20525;-45
2021/08/05 01:03:31;;;;;;;6.53;5.93;;;;;;;19.82;66.35;100344.78;4991924;28;20254;-45
2021/08/05 01:06:21;;;;;;;7.18;6.53;;;;;;;19.82;66.29;100344.78;4990101;28;20029;-45
2021/08/05 01:08:52;;;;;;;7.63;6.20;;;;;;;19.84;66.18;100347.38;5009836;28;20108;-45
2021/08/05 01:11:24;;;;;;;6.45;5.95;;;;;;;19.81;66.43;100342.19;5009332;28;20069;-45
2021/08/05 01:13:55;;;;;;;6.53;6.13;;;;;;;19.84;66.37;100342.88;5007091;28;20389;-44
2021/08/05 01:16:24;;;;;;;6.22;5.78;;;;;;;19.84;66.25;100337.53;5010187;28;20397;-45
2021/08/05 01:18:50;;;;;;;6.20;5.70;;;;;;;19.82;66.53;100339.44;4995144;28;20037;-45
2021/08/05 01:21:20;;;;;;;7.00;6.40;;;;;;;19.81;66.40;100340.34;4990845;28;20037;-45
2021/08/05 01:27:07;;;;;;;6.90;6.40;;;;;;;19.82;66.42;100333.19;5004401;28;20084;-45
2021/08/05 01:29:34;;;;;;;6.70;6.05;;;;;;;19.83;66.40;100340.28;5010098;28;20030;-44
2021/08/05 01:32:02;;;;;;;6.65;6.25;;;;;;;19.82;66.40;100339.44;5014173;28;20056;-45
2021/08/05 01:34:28;;;;;;;7.00;6.50;;;;;;;19.82;66.39;100336.75;4977477;28;20034;-45
2021/08/05 01:36:54;;;;;;;6.82;6.32;;;;;;;19.79;66.34;100339.59;4991137;28;20485;-45
2021/08/05 01:39:19;;;;;;;6.90;6.28;;;;;;;19.80;66.22;100344.00;4994474;28;20112;-45
2021/08/05 01:41:46;;;;;;;5.80;5.40;;;;;;;19.79;66.34;100336.03;4990993;28;20025;-45
2021/08/05 01:44:12;;;;;;;6.95;6.43;;;;;;;19.77;66.42;100333.44;5006049;28;20032;-45
2021/08/05 01:46:38;;;;;;;5.80;5.40;;;;;;;19.78;66.41;100327.16;4999614;28;20042;-44
2021/08/05 01:49:04;;;;;;;6.80;6.40;;;;;;;19.79;66.24;100334.25;5005743;28;20030;-45
2021/08/05 01:51:30;;;;;;;7.05;6.45;;;;;;;19.78;66.29;100321.81;4986648;28;20041;-45
2021/08/05 01:53:55;;;;;;;7.72;7.13;;;;;;;19.79;66.39;100322.66;5004030;28;20127;-45
2021/08/05 01:56:21;;;;;;;6.18;5.78;;;;;;;19.79;66.35;100323.53;4991537;28;20101;-44
2021/08/05 01:58:47;;;;;;;7.22;6.72;;;;;;;19.77;66.42;100320.06;5012096;28;20210;-44
2021/08/05 02:01:12;;;;;;;6.53;6.03;;;;;;;19.77;66.54;100314.72;5008228;28;20465;-45
2021/08/05 02:03:38;;;;;;;7.20;6.70;;;;;;;19.81;66.39;100318.94;5008975;28;20056;-45
2021/08/05 02:06:19;;;;;;;7.82;7.22;;;;;;;19.79;66.42;100328.00;5008634;28;20030;-45
2021/08/05 02:08:56;;;;;;;6.80;6.30;;;;;;;19.79;66.42;100312.84;5007602;28;20017;-45
2021/08/05 02:11:26;;;;;;;7.30;6.80;;;;;;;19.74;66.37;100321.09;5002750;28;20022;-45
2021/08/05 02:13:53;;;;;;;7.85;7.25;;;;;;;19.78;66.45;100318.25;4992120;28;20125;-46
2021/08/05 02:16:19;;;;;;;7.13;6.55;;;;;;;19.78;66.46;100313.78;4990885;28;20030;-45
2021/08/05 02:18:49;;;;;;;6.25;5.85;;;;;;;19.75;66.35;100316.63;4992498;28;20100;-45
2021/08/05 02:21:15;;;;;;;7.53;6.82;;;;;;;19.73;66.36;100316.69;5009465;28;20506;-45
2021/08/05 02:23:48;;;;;;;6.45;5.95;;;;;;;19.78;66.45;100320.94;4983173;28;20080;-45
2021/08/05 02:26:14;;;;;;;7.18;6.68;;;;;;;19.78;66.62;100310.25;5000724;28;20094;-45
2021/08/05 02:28:40;;;;;;;6.47;6.07;;;;;;;19.73;66.30;100310.47;4988311;28;20045;-44
2021/08/05 02:31:07;;;;;;;6.50;6.00;;;;;;;19.72;66.63;100303.41;5007255;28;20398;-45
2021/08/05 02:33:33;;;;;;;6.50;6.00;;;;;;;19.74;66.74;100306.88;5006548;28;20060;-45
2021/08/05 02:35:58;;;;;;;7.18;6.55;;;;;;;19.70;66.75;100303.47;4992248;28;20087;-45
2021/08/05 02:38:25;;;;;;;6.60;5.80;;;;;;;19.70;66.64;100302.59;5003044;22;20042;-45
2021/08/05 02:40:51;;;;;;;6.80;6.30;;;;;;;19.71;66.68;100297.19;4987823;28;20425;-45
2021/08/05 02:43:17;;;;;;;7.22;6.72;;;;;;;19.71;66.50;100294.50;4994280;28;20026;-45
2021/08/05 02:45:44;;;;;;;7.47;6.78;;;;;;;19.72;66.37;100293.59;4993818;28;20037;-45
2021/08/05 02:48:10;;;;;;;7.55;6.95;;;;;;;19.71;66.58;100293.66;4995204;28;20033;-45
2021/08/05 02:50:36;;;;;;;6.95;6.45;;;;;;;19.69;66.65;100290.19;4993452;28;20455;-45
2021/08/05 02:53:03;;;;;;;6.10;5.70;;;;;;;19.66;66.76;100282.31;4989962;28;20021;-45
2021/08/05 02:55:28;;;;;;;6.97;6.47;;;;;;;19.68;66.79;100293.81;4987622;28;20506;-45
2021/08/05 02:57:54;;;;;;;6.50;6.00;;;;;;;19.70;66.62;100294.59;4993779;28;20514;-45
2021/08/05 03:00:20;;;;;;;6.50;6.00;;;;;;;19.66;66.43;100295.69;4995034;28;20029;-45
2021/08/05 03:02:45;;;;;;;6.50;6.03;;;;;;;19.68;66.76;100299.16;4985762;28;20041;-45
2021/08/05 03:05:12;;;;;;;7.38;6.88;;;;;;;19.68;66.79;100304.53;4994069;28;20076;-45
2021/08/05 03:07:37;;;;;;;7.30;6.70;;;;;;;19.65;66.54;100296.66;4993550;28;20030;-44
2021/08/05 03:10:04;;;;;;;6.53;6.05;;;;;;;19.63;66.80;100299.41;4993884;28;20203;-45
2021/08/05 03:12:29;;;;;;;6.68;6.18;;;;;;;19.63;66.96;100301.25;4993441;28;20054;-45
2021/08/05 03:14:55;;;;;;;6.22;5.78;;;;;;;19.62;66.81;100305.72;4999281;28;20116;-45
2021/08/05 03:17:20;;;;;;;7.15;6.65;;;;;;;19.61;66.81;100298.63;4997502;28;20026;-45
2021/08/05 03:19:45;;;;;;;6.07;5.68;;;;;;;19.59;66.91;100301.41;4996430;28;20077;-45
2021/08/05 03:22:10;;;;;;;6.03;5.63;;;;;;;19.61;66.81;100298.63;4995554;28;20029;-44
2021/08/05 03:24:36;;;;;;;6.95;6.45;;;;;;;19.60;66.82;100296.88;4998464;28;20037;-45
2021/08/05 03:27:01;;;;;;;5.72;5.35;;;;;;;19.59;66.82;100298.72;4996557;28;20478;-45
2021/08/05 03:29:26;;;;;;;6.07;5.68;;;;;;;19.59;66.79;100290.69;4994264;28;20053;-45
2021/08/05 03:31:52;;;;;;;6.30;5.90;;;;;;;19.58;66.84;100296.97;4988857;28;20027;-45
2021/08/05 03:34:17;;;;;;;6.57;5.95;;;;;;;19.59;67.15;100289.81;4993097;28;20033;-44
2021/08/05 03:36:42;;;;;;;6.13;5.70;;;;;;;19.57;66.90;100297.91;4985902;28;20035;-45
2021/08/05 03:39:08;;;;;;;6.82;6.18;;;;;;;19.57;66.73;100295.25;4988432;28;20050;-45
2021/08/05 03:41:33;;;;;;;6.72;6.22;;;;;;;19.57;66.95;100289.91;4987615;28;20049;-45
2021/08/05 03:43:58;;;;;;;6.32;5.93;;;;;;;19.57;66.98;100287.22;4990198;28;20050;-45
2021/08/05 03:46:24;;;;;;;6.40;6.00;;;;;;;19.55;67.03;100281.09;4990248;28;20046;-45
2021/08/05 03:48:49;;;;;;;6.18;5.75;;;;;;;19.56;66.99;100285.50;4990788;28;20117;-45
2021/08/05 03:51:14;;;;;;;6.47;6.07;;;;;;;19.57;66.76;100283.69;4989416;28;20018;-45
2021/08/05 03:53:41;;;;;;;6.95;6.35;;;;;;;19.56;67.05;100285.50;4990503;28;20026;-45
2021/08/05 03:56:06;;;;;;;6.78;6.28;;;;;;;19.58;67.07;100278.25;4989898;28;20050;-45
2021/08/05 03:58:31;;;;;;;7.25;6.75;;;;;;;19.57;67.03;100276.53;4990372;28;20061;-45
2021/08/05 04:00:56;;;;;;;6.97;6.47;;;;;;;19.56;66.97;100280.16;4987526;28;20035;-45
2021/08/05 04:03:22;;;;;;;6.95;6.45;;;;;;;19.55;67.12;100273.09;4990330;28;20029;-45
2021/08/05 04:05:47;;;;;;;6.50;6.03;;;;;;;19.55;67.07;100277.56;4989869;28;20737;-45
2021/08/05 04:08:12;;;;;;;7.28;6.68;;;;;;;19.54;66.97;100276.69;4993224;28;20022;-45
2021/08/05 04:10:38;;;;;;;6.57;6.07;;;;;;;19.55;66.96;100278.44;4994008;28;20064;-45
2021/08/05 04:13:04;;;;;;;7.05;6.55;;;;;;;19.55;66.93;100277.56;4993716;28;20038;-45
2021/08/05 04:15:29;;;;;;;6.70;6.20;;;;;;;19.52;66.93;100277.72;4992979;28;20406;-45
2021/08/05 04:17:55;;;;;;;6.57;6.07;;;;;;;19.51;66.95;100289.38;4994223;28;20022;-45
2021/08/05 04:20:21;;;;;;;6.93;5.90;;;;;;;19.52;67.02;100283.94;4992453;28;20022;-45
2021/08/05 04:22:49;;;;;;;7.10;6.50;;;;;;;19.55;66.68;100283.78;4989463;28;20033;-45
2021/08/05 04:25:14;;;;;;;6.80;6.20;;;;;;;19.52;66.88;100283.94;4992161;28;20048;-44
2021/08/05 04:27:40;;;;;;;6.82;6.32;;;;;;;19.52;66.91;100288.41;4992443;28;20045;-45
2021/08/05 04:30:07;;;;;;;6.35;5.93;;;;;;;19.49;66.64;100286.78;4994047;28;20033;-45
2021/08/05 04:32:33;;;;;;;6.32;5.82;;;;;;;19.49;66.72;100284.97;4992693;28;20034;-44
2021/08/05 04:34:58;;;;;;;6.32;5.82;;;;;;;19.48;67.13;100288.56;4991977;28;20123;-45
2021/08/05 04:37:23;;;;;;;6.70;6.20;;;;;;;19.45;67.00;100283.41;4992772;28;20018;-45
2021/08/05 04:39:52;;;;;;;6.57;6.07;;;;;;;19.47;67.03;100283.28;4993166;28;20057;-45
2021/08/05 04:42:17;;;;;;;6.03;5.63;;;;;;;19.46;66.70;100285.13;4991004;28;20029;-45
2021/08/05 04:44:42;;;;;;;6.55;6.05;;;;;;;19.43;67.03;100290.63;4993953;28;20030;-45
2021/08/05 04:47:08;;;;;;;6.28;5.63;;;;;;;19.43;67.12;100284.41;4990621;28;20031;-45
2021/08/05 04:49:33;;;;;;;6.80;6.30;;;;;;;19.46;66.80;100278.91;4993964;28;20425;-44
2021/08/05 04:51:58;;;;;;;6.88;6.32;;;;;;;19.46;66.98;100279.78;4993298;28;20037;-45
2021/08/05 04:54:24;;;;;;;6.82;6.22;;;;;;;19.47;66.97;100276.16;4990357;28;20382;-45
2021/08/05 04:56:50;;;;;;;6.72;6.22;;;;;;;19.44;66.91;100270.13;4992562;28;20026;-45
2021/08/05 04:59:15;;;;;;;6.85;6.32;;;;;;;19.43;66.71;100268.38;4993292;28;20035;-45
2021/08/05 05:01:41;;;;;;;6.22;5.72;;;;;;;19.47;66.82;100269.94;4993037;28;20162;-44
2021/08/05 05:04:06;;;;;;;7.05;6.25;;;;;;;19.43;66.99;100257.66;4992680;28;20026;-45
2021/08/05 05:06:31;;;;;;;7.10;6.57;;;;;;;19.43;66.89;100263.00;4992137;28;20035;-45
2021/08/05 05:08:57;;;;;;;7.13;6.53;;;;;;;19.41;67.00;100268.44;4989761;28;20022;-45
2021/08/05 05:11:22;;;;;;;7.03;6.53;;;;;;;19.43;67.27;100266.56;4991534;28;20088;-45
2021/08/05 05:13:48;;;;;;;7.15;6.55;;;;;;;19.46;67.05;100261.06;4992232;28;20045;-45
2021/08/05 05:16:14;;;;;;;8.23;7.40;;;;;;;19.46;66.96;100260.19;4992668;28;20070;-45
2021/08/05 05:18:39;;;;;;;7.40;6.85;;;;;;;19.43;67.00;100265.69;4992434;28;20053;-45
2021/08/05 05:21:04;;;;;;;6.93;6.32;;;;;;;19.45;67.07;100263.81;4993938;28;20379;-45
2021/08/05 05:23:31;;;;;;;7.82;7.13;;;;;;;19.40;67.45;100257.84;4992868;28;20022;-45
2021/08/05 05:25:57;;;;;;;7.50;7.00;;;;;;;19.40;67.29;100258.69;4992119;28;20110;-44
2021/08/05 05:28:23;;;;;;;7.07;6.47;;;;;;;19.41;66.91;100257.75;5005569;28;20468;-45
2021/08/05 05:30:49;;;;;;;8.10;7.50;;;;;;;19.39;67.23;100256.09;4992858;28;20037;-45
2021/08/05 05:33:15;;;;;;;7.65;7.05;;;;;;;19.40;67.40;100260.53;4992185;28;20433;-45
2021/08/05 05:35:40;;;;;;;7.47;6.78;;;;;;;19.40;67.27;100261.38;4992764;28;20394;-45
2021/08/05 05:38:06;;;;;;;7.15;6.55;;;;;;;19.38;66.86;100260.59;4992761;28;20048;-45
2021/08/05 05:40:32;;;;;;;7.72;7.13;;;;;;;19.38;67.34;100259.72;4992218;28;20049;-45
2021/08/05 05:43:00;;;;;;;8.15;7.45;;;;;;;19.38;67.23;100257.06;4991817;28;20034;-44
2021/08/05 05:45:26;;;;;;;7.57;6.88;;;;;;;19.38;67.14;100262.41;4992702;28;20085;-45
2021/08/05 05:47:51;;;;;;;7.93;7.20;;;;;;;19.38;67.14;100259.72;4992774;28;20026;-45
2021/08/05 05:50:19;;;;;;;7.78;7.18;;;;;;;19.40;67.36;100263.19;4989399;28;20165;-45
2021/08/05 05:52:45;;;;;;;8.45;7.60;;;;;;;19.41;67.14;100257.75;4990089;28;20030;-44
2021/08/05 05:55:11;;;;;;;8.68;7.97;;;;;;;19.39;67.40;100251.63;4992916;28;20022;-45
2021/08/05 05:57:36;;;;;;;8.70;7.97;;;;;;;19.37;67.26;100248.16;4992722;28;20022;-45
2021/08/05 06:00:03;;;;;;;8.10;7.43;;;;;;;19.36;67.31;100268.72;4992874;28;20109;-45
2021/08/05 06:02:28;;;;;;;8.52;7.75;;;;;;;19.38;67.41;100270.44;4991201;28;20030;-45
2021/08/05 06:04:54;;;;;;;8.20;7.60;;;;;;;19.39;67.37;100273.03;4991426;28;20030;-45
2021/08/05 06:07:19;;;;;;;7.97;7.38;;;;;;;19.36;67.43;100268.72;4991742;28;20045;-45
2021/08/05 06:09:44;;;;;;;8.20;7.57;;;;;;;19.37;67.15;100266.88;4992064;28;20482;-45
2021/08/05 06:12:10;;;;;;;8.48;7.78;;;;;;;19.36;67.41;100274.06;4993036;28;20062;-45
2021/08/05 06:14:35;;;;;;;8.20;7.60;;;;;;;19.39;67.28;100277.50;4992408;28;20030;-45
2021/08/05 06:17:00;;;;;;;8.25;7.55;;;;;;;19.38;67.54;100270.44;4992548;28;20098;-45
2021/08/05 06:19:25;;;;;;;8.70;7.90;;;;;;;19.36;67.62;100276.72;4990444;28;20057;-45
2021/08/05 06:21:51;;;;;;;8.50;7.80;;;;;;;19.33;67.74;100271.53;4992013;28;20032;-45
2021/08/05 06:24:16;;;;;;;8.98;8.27;;;;;;;19.35;67.54;100277.66;4992105;28;20018;-45
2021/08/05 06:26:42;;;;;;;8.95;7.82;;;;;;;19.32;67.68;100277.84;4993127;28;20077;-45
2021/08/05 06:29:09;;;;;;;8.45;7.75;;;;;;;19.35;67.57;100276.81;4990690;28;20022;-45
2021/08/05 06:31:34;;;;;;;8.55;7.85;;;;;;;19.38;67.49;100273.09;4992124;28;20025;-45
2021/08/05 06:34:01;;;;;;;8.55;7.88;;;;;;;19.37;67.19;100272.22;4991426;28;20030;-45
2021/08/05 06:36:26;;;;;;;7.80;7.10;;;;;;;19.35;67.64;100269.63;4974850;28;20030;-45
2021/08/05 06:38:51;;;;;;;8.93;8.20;;;;;;;19.35;67.42;100274.97;4988417;28;20030;-45
2021/08/05 06:41:18;;;;;;;8.63;7.93;;;;;;;19.35;67.53;100274.97;4991828;28;20026;-45
2021/08/05 06:43:43;;;;;;;8.80;7.70;;;;;;;19.34;67.56;100277.75;4991964;28;20026;-45
2021/08/05 06:46:09;;;;;;;8.55;7.85;;;;;;;19.35;67.30;100274.97;4992124;28;20026;-45
2021/08/05 06:48:34;;;;;;;9.00;8.30;;;;;;;19.33;67.55;100282.22;4990309;28;20387;-45
2021/08/05 06:50:59;;;;;;;8.10;7.50;;;;;;;19.29;67.52;100272.66;4990780;28;20129;-45
2021/08/05 06:53:25;;;;;;;9.10;8.40;;;;;;;19.32;67.64;100272.50;4972806;28;20025;-45
2021/08/05 06:55:50;;;;;;;8.20;7.50;;;;;;;19.34;67.67;100273.25;4991813;28;20441;-44
2021/08/05 06:58:19;;;;;;;8.80;8.10;;;;;;;19.32;67.42;100269.81;4991447;28;20034;-45
2021/08/05 07:01:37;;;;;;;9.43;8.63;;;;;;;19.30;67.47;100269.00;4991446;28;20038;-45
2021/08/05 07:04:02;;;;;;;9.10;8.32;;;;;;;19.35;67.45;100268.78;4986882;28;20022;-45
2021/08/05 07:06:28;;;;;;;9.07;8.27;;;;;;;19.33;67.71;100268.88;4988343;28;20106;-45
2021/08/05 07:08:53;;;;;;;8.82;8.13;;;;;;;19.33;67.48;100273.34;4990941;28;20388;-45
2021/08/05 07:11:18;;;;;;;9.18;8.38;;;;;;;19.36;67.52;100274.06;4991277;28;20022;-45
2021/08/05 07:13:44;;;;;;;8.73;8.02;;;;;;;19.32;67.40;100272.50;4991021;28;20026;-45
2021/08/05 07:16:09;;;;;;;8.77;8.07;;;;;;;19.31;67.77;100268.06;4991011;28;20073;-46
2021/08/05 07:18:35;;;;;;;8.40;7.70;;;;;;;19.31;67.53;100270.75;4986637;28;20041;-45
2021/08/05 07:21:01;;;;;;;8.40;7.60;;;;;;;19.32;67.51;100269.81;4988928;28;20022;-45
2021/08/05 07:23:27;;;;;;;9.15;8.23;;;;;;;19.34;67.25;100273.25;4987928;28;20410;-45
2021/08/05 07:25:53;;;;;;;8.95;8.20;;;;;;;19.36;67.62;100271.38;4990077;28;20033;-45
2021/08/05 07:28:18;;;;;;;9.10;8.40;;;;;;;19.34;67.44;100265.22;4990406;28;20086;-45
2021/08/05 07:30:43;;;;;;;10.00;9.10;;;;;;;19.35;67.69;100274.13;4990361;28;20034;-45
2021/08/05 07:33:09;;;;;;;8.40;7.70;;;;;;;19.33;67.56;100276.00;4991197;28;20023;-45
2021/08/05 07:35:34;;;;;;;8.63;7.93;;;;;;;19.36;67.61;100267.84;4990981;28;20026;-45
2021/08/05 07:37:59;;;;;;;9.77;8.88;;;;;;;19.32;67.54;100267.13;4990685;28;20099;-45
2021/08/05 07:40:25;;;;;;;8.55;7.85;;;;;;;19.30;67.43;100271.69;4986721;28;20397;-45
2021/08/05 07:42:50;;;;;;;9.10;8.40;;;;;;;19.32;67.35;100272.50;4987455;28;20022;-44
2021/08/05 07:45:15;;;;;;;8.93;8.23;;;;;;;19.32;67.65;100271.63;4987794;28;20019;-45
2021/08/05 07:47:41;;;;;;;7.93;7.30;;;;;;;19.31;67.69;100267.22;4989750;28;20462;-45
2021/08/05 07:50:09;;;;;;;8.02;7.35;;;;;;;19.35;67.47;100266.97;4990261;28;20432;-46
2021/08/05 07:52:34;;;;;;;8.57;7.88;;;;;;;19.32;67.59;100272.50;4990841;28;20120;-45
2021/08/05 07:55:04;;;;;;;8.45;7.78;;;;;;;19.29;67.64;100272.66;4990793;28;20442;-45
2021/08/05 07:57:30;;;;;;;8.77;8.02;;;;;;;19.29;67.34;100267.31;4989296;28;20371;-45
2021/08/05 07:59:56;;;;;;;9.32;8.55;;;;;;;19.33;67.48;100268.88;4989844;28;20105;-45
2021/08/05 08:02:21;;;;;;;8.63;7.93;;;;;;;19.32;67.48;100267.13;4990364;28;20161;-45
2021/08/05 08:04:47;;;;;;;8.70;7.93;;;;;;;19.32;67.84;100271.63;4989490;28;20026;-45
2021/08/05 08:07:12;;;;;;;8.60;7.80;;;;;;;19.31;67.65;100268.06;4990675;28;20022;-45
2021/08/05 08:09:37;;;;;;;8.65;7.95;;;;;;;19.31;67.81;100270.75;4989633;28;20552;-45
2021/08/05 08:12:03;;;;;;;7.85;7.22;;;;;;;19.27;67.84;100269.19;4990028;28;20421;-45
2021/08/05 08:14:29;;;;;;;8.95;8.20;;;;;;;19.26;67.70;100267.44;4984314;28;20069;-45
2021/08/05 08:16:55;;;;;;;8.70;8.00;;;;;;;19.28;67.98;100265.56;4989714;28;20034;-45
2021/08/05 08:19:20;;;;;;;9.35;8.55;;;;;;;19.29;67.76;100266.41;4989856;28;20053;-45
2021/08/05 08:21:45;;;;;;;8.95;8.20;;;;;;;19.27;67.85;100257.63;4989354;28;20026;-45
2021/08/05 08:24:11;;;;;;;8.30;7.60;;;;;;;19.29;67.79;100261.06;4990453;28;20030;-45
2021/08/05 08:26:37;;;;;;;9.13;8.32;;;;;;;19.28;67.99;100260.22;4989578;28;20027;-45
2021/08/05 08:29:04;;;;;;;8.38;7.60;;;;;;;19.29;67.74;100256.59;4988411;28;20034;-45
2021/08/05 08:31:29;;;;;;;8.35;7.68;;;;;;;19.26;68.15;100256.75;4986979;28;20081;-45
2021/08/05 08:33:54;;;;;;;9.23;8.52;;;;;;;19.28;68.16;100248.66;4990027;28;20030;-44
2021/08/05 08:36:20;;;;;;;8.38;7.65;;;;;;;19.26;68.06;100248.75;4989685;28;20520;-45
2021/08/05 08:38:45;;;;;;;8.73;7.93;;;;;;;19.27;68.01;100242.44;5002331;23;20132;-44
2021/08/05 08:41:14;;;;;;;8.18;7.53;;;;;;;19.26;68.17;100253.22;5018744;28;20384;-45
2021/08/05 08:43:40;;;;;;;7.72;7.03;;;;;;;19.22;68.17;100236.47;5016957;28;20034;-45
2021/08/05 08:46:09;;;;;;;8.40;7.65;;;;;;;19.29;67.86;100245.91;5019183;28;20604;-44
2021/08/05 08:48:35;;;;;;;8.05;7.30;;;;;;;19.26;67.91;100239.84;5019892;28;20048;-45
2021/08/05 08:51:01;;;;;;;7.75;7.13;;;;;;;19.30;68.08;100236.94;5011789;28;20488;-45
2021/08/05 08:53:39;;;;;;;7.53;6.97;;;;;;;19.30;68.08;100239.59;5026525;28;20033;-44
2021/08/05 08:56:07;;;;;;;7.25;6.72;;;;;;;19.28;68.01;100244.19;5031573;28;20396;-44
2021/08/05 08:58:32;;;;;;;7.72;7.10;;;;;;;19.31;68.18;100244.00;5025395;28;20057;-45
2021/08/05 09:00:58;;;;;;;7.88;7.28;;;;;;;19.34;68.04;100254.53;5030795;28;20103;-45
2021/08/05 09:03:23;;;;;;;8.18;7.47;;;;;;;19.30;67.95;100234.25;5031732;28;20100;-44
2021/08/05 09:05:48;;;;;;;7.63;7.03;;;;;;;19.34;68.01;100243.84;5032417;28;20022;-44
2021/08/05 09:08:32;;;;;;;7.80;7.13;;;;;;;19.32;68.07;100245.75;5030450;28;20021;-45
2021/08/05 09:10:57;;;;;;;7.50;6.90;;;;;;;19.35;67.98;100242.88;5031094;28;20032;-45
2021/08/05 09:13:23;;;;;;;7.03;6.53;;;;;;;19.34;67.95;100243.84;5029672;28;20029;-45
2021/08/05 09:15:48;;;;;;;7.95;7.35;;;;;;;19.34;67.99;100233.16;5028292;28;20705;-45
2021/08/05 09:18:34;;;;;;;7.35;6.75;;;;;;;19.33;67.86;100231.44;5032982;28;20032;-45
2021/08/05 09:21:13;;;;;;;6.85;6.30;;;;;;;19.32;67.82;100227.03;5027786;28;20071;-45
2021/08/05 09:24:03;;;;;;;7.28;6.72;;;;;;;19.30;67.87;100222.69;5029952;28;20051;-44
2021/08/05 09:26:30;;;;;;;7.53;7.03;;;;;;;19.30;67.78;100228.91;5014214;28;20060;-44
2021/08/05 09:29:05;;;;;;;7.90;7.30;;;;;;;19.30;68.46;100225.38;5030226;28;20120;-45
2021/08/05 09:31:31;;;;;;;8.05;7.45;;;;;;;19.28;68.28;100225.47;5032809;28;20021;-44
2021/08/05 09:34:04;;;;;;;7.20;6.60;;;;;;;19.29;68.18;100229.00;5030986;28;20104;-45
2021/08/05 09:36:30;;;;;;;7.25;6.65;;;;;;;19.32;67.84;100229.72;5029049;28;20030;-44
2021/08/05 09:38:55;;;;;;;7.35;6.75;;;;;;;19.30;68.00;100223.56;5030494;28;20030;-45
2021/08/05 09:41:21;;;;;;;7.80;7.13;;;;;;;19.28;67.91;100214.78;5031934;28;20025;-45
2021/08/05 09:43:46;;;;;;;7.93;7.32;;;;;;;19.33;67.91;100219.88;5026447;28;20026;-45
2021/08/05 09:46:13;;;;;;;8.63;7.82;;;;;;;19.29;67.93;100216.50;5031572;28;20054;-44
2021/08/05 09:48:40;;;;;;;7.72;7.07;;;;;;;19.33;67.85;100217.19;5031253;28;20087;-44
2021/08/05 09:51:18;;;;;;;8.20;7.60;;;;;;;19.34;68.41;100210.91;5029520;28;20025;-45
2021/08/05 09:54:03;;;;;;;8.18;7.57;;;;;;;19.32;68.32;100215.47;5029806;28;20041;-44
2021/08/05 09:56:33;;;;;;;7.43;6.82;;;;;;;19.31;68.17;100219.09;5029382;28;20025;-45
2021/08/05 09:59:05;;;;;;;7.70;7.10;;;;;;;19.30;68.08;100215.56;5026036;28;20108;-45
2021/08/05 10:01:31;;;;;;;7.40;6.80;;;;;;;19.31;67.78;100211.06;5029588;28;20021;-44
2021/08/05 10:03:56;;;;;;;8.30;7.60;;;;;;;19.33;67.81;100206.50;5008793;28;20029;-44
2021/08/05 10:06:21;;;;;;;7.63;6.93;;;;;;;19.30;67.77;100210.19;5028891;28;20026;-45
2021/08/05 10:08:47;;;;;;;6.55;6.05;;;;;;;19.29;68.07;100194.25;5026536;28;20045;-45
2021/08/05 10:11:12;;;;;;;7.28;6.68;;;;;;;19.34;68.48;100209.09;5031452;28;20021;-45
2021/08/05 10:13:39;;;;;;;8.50;7.80;;;;;;;19.31;68.76;100201.22;5029397;28;20036;-45
2021/08/05 10:16:10;;;;;;;8.98;8.18;;;;;;;19.32;68.60;100197.63;5029770;28;20028;-45
2021/08/05 10:18:37;;;;;;;9.23;8.45;;;;;;;19.32;68.59;100194.97;5028719;28;20017;-44
2021/08/05 10:21:08;;;;;;;8.40;7.70;;;;;;;19.31;68.18;100190.53;5030790;28;20083;-45
2021/08/05 10:23:36;;;;;;;8.05;7.30;;;;;;;19.31;67.88;100185.19;5030275;28;20036;-45
2021/08/05 10:26:03;;;;;;;7.55;6.85;;;;;;;19.34;67.67;100184.19;5030271;28;20021;-45
2021/08/05 10:28:29;;;;;;;7.60;7.00;;;;;;;19.35;67.71;100186.75;5008720;28;20385;-45
2021/08/05 10:30:55;;;;;;;7.75;7.15;;;;;;;19.34;67.52;100174.34;5028689;28;20036;-44
2021/08/05 10:33:22;;;;;;;7.10;6.60;;;;;;;19.32;67.47;100176.25;5029824;28;20017;-45
2021/08/05 10:35:48;;;;;;;7.90;7.22;;;;;;;19.35;67.17;100172.53;5030425;28;20516;-44
2021/08/05 10:38:16;;;;;;;7.85;7.25;;;;;;;19.36;67.41;100159.09;5028352;28;20033;-44
2021/08/05 10:40:41;;;;;;;7.20;6.60;;;;;;;19.37;67.40;100157.25;5029484;28;20029;-44
2021/08/05 10:43:08;;;;;;;7.70;7.10;;;;;;;19.39;67.40;100152.69;5010893;28;20026;-45
2021/08/05 10:45:33;;;;;;;7.72;7.05;;;;;;;19.34;67.26;100152.09;5027192;28;20103;-44
2021/08/05 10:48:00;;;;;;;6.80;6.25;;;;;;;19.40;67.42;100153.56;5011569;28;20056;-45
2021/08/05 10:50:25;;;;;;;7.80;7.10;;;;;;;19.41;67.00;100147.28;5010987;28;20018;-45
2021/08/05 10:52:57;;;;;;;8.48;7.88;;;;;;;19.41;67.21;100153.47;5030336;28;20033;-44
2021/08/05 10:55:40;;;;;;;7.30;6.60;;;;;;;19.43;66.76;100150.72;5013177;28;20025;-45
2021/08/05 10:58:15;;;;;;;7.57;6.97;;;;;;;19.43;67.11;100150.72;5027705;28;20437;-45
2021/08/05 11:00:49;;;;;;;7.97;7.38;;;;;;;19.47;67.66;100154.94;5029593;28;20381;-44
2021/08/05 11:03:34;;;;;;;8.80;8.10;;;;;;;19.44;67.80;100144.44;5028799;28;20408;-45
2021/08/05 11:06:01;;;;;;;8.65;7.95;;;;;;;19.43;67.69;100140.00;5025944;28;20072;-45
2021/08/05 11:08:28;;;;;;;8.77;8.07;;;;;;;19.45;67.82;100143.47;5029570;28;20021;-44
2021/08/05 11:11:22;;;;;;;8.98;7.55;;;;;;;19.45;67.43;100140.81;5029018;28;20018;-44
2021/08/05 11:13:53;;;;;;;8.18;7.43;;;;;;;19.47;67.59;100141.56;5026341;28;20025;-45
2021/08/05 11:16:18;;;;;;;;;;;;;;;19.45;67.49;100133.66;5030957;28;20389;-45
2021/08/05 11:19:21;;;;;;;8.27;7.53;;;;;;;19.46;67.39;100129.16;5009506;28;19913;-45
2021/08/05 11:21:47;;;;;;;9.27;8.57;;;;;;;19.48;68.00;100133.47;5027619;28;20643;-45
2021/08/05 11:24:41;;;;;;;10.13;9.27;;;;;;;19.49;68.02;100134.34;5026525;28;20025;-45
2021/08/05 11:27:18;;;;;;;8.85;8.15;;;;;;;19.50;68.38;100133.38;5025365;28;20021;-45